createdAt,value
2023-05-15T00:01:01.066Z,4.81
2023-05-15T00:03:34.759Z,4.79
2023-05-15T00:06:04.483Z,4.74
2023-05-15T00:08:35.414Z,4.70
2023-05-15T00:11:06.459Z,4.66
2023-05-15T00:13:37.770Z,4.63
2023-05-15T00:16:07.971Z,4.59
2023-05-15T00:18:37.688Z,4.57
2023-05-15T00:21:07.080Z,4.52
2023-05-15T00:23:38.013Z,4.50
2023-05-15T00:26:10.188Z,4.46
2023-05-15T00:28:40.035Z,4.40
2023-05-15T00:31:10.497Z,4.37
2023-05-15T00:33:39.174Z,4.35
2023-05-15T00:36:07.643Z,4.31
2023-05-15T00:38:36.066Z,4.25
2023-05-15T00:41:06.297Z,4.18
2023-05-15T00:43:36.228Z,4.17
2023-05-15T00:46:05.331Z,4.12
2023-05-15T00:48:34.372Z,4.10
2023-05-15T00:51:02.934Z,4.02
2023-05-15T00:53:31.094Z,4.00
2023-05-15T00:55:59.982Z,3.95
2023-05-15T00:58:28.748Z,3.92
2023-05-15T01:00:58.387Z,3.92
2023-05-15T01:03:26.794Z,3.87
2023-05-15T01:05:54.929Z,3.82
2023-05-15T01:08:27.706Z,3.78
2023-05-15T01:10:57.231Z,3.76
2023-05-15T01:13:26.653Z,3.75
2023-05-15T01:15:55.858Z,3.73
2023-05-15T01:18:26.290Z,3.68
2023-05-15T01:21:08.372Z,3.61
2023-05-15T01:23:45.319Z,3.58
2023-05-15T01:26:31.808Z,3.52
2023-05-15T01:29:05.705Z,3.41
2023-05-15T01:31:36.405Z,3.48
2023-05-15T01:34:08.508Z,3.49
2023-05-15T01:36:39.257Z,3.48
2023-05-15T01:39:08.768Z,3.44
2023-05-15T01:41:38.347Z,3.42
2023-05-15T01:44:08.724Z,3.40
2023-05-15T01:46:39.765Z,3.37
2023-05-15T01:49:09.949Z,3.36
2023-05-15T01:51:40.447Z,3.34
2023-05-15T01:54:09.939Z,3.34
2023-05-15T01:56:39.196Z,3.28
2023-05-15T01:59:10.085Z,3.25
2023-05-15T02:01:39.567Z,3.25
2023-05-15T02:04:07.990Z,3.25
2023-05-15T02:06:36.438Z,3.21
2023-05-15T02:09:04.926Z,3.18
2023-05-15T02:11:32.949Z,3.15
2023-05-15T02:14:01.854Z,3.10
2023-05-15T02:16:31.936Z,3.08
2023-05-15T02:19:00.223Z,3.06
2023-05-15T02:21:28.346Z,3.02
2023-05-15T02:23:56.444Z,3.00
2023-05-15T02:26:28.057Z,2.99
2023-05-15T02:29:07.955Z,2.98
2023-05-15T02:31:43.967Z,2.97
2023-05-15T02:34:16.884Z,2.96
2023-05-15T02:36:48.156Z,2.92
2023-05-15T02:39:17.818Z,2.85
2023-05-15T02:41:46.348Z,2.83
2023-05-15T02:44:15.181Z,2.81
2023-05-15T02:46:45.585Z,2.77
2023-05-15T02:49:13.813Z,2.69
2023-05-15T02:51:41.894Z,2.67
2023-05-15T02:54:10.515Z,2.65
2023-05-15T02:56:38.845Z,2.58
2023-05-15T02:59:07.224Z,2.50
2023-05-15T03:01:35.528Z,2.49
2023-05-15T03:04:05.465Z,2.48
2023-05-15T03:06:33.559Z,2.46
2023-05-15T03:09:01.803Z,2.42
2023-05-15T03:11:29.887Z,2.40
2023-05-15T03:14:00.206Z,2.38
2023-05-15T03:16:28.780Z,2.38
2023-05-15T03:18:56.999Z,2.34
2023-05-15T03:21:26.598Z,2.34
2023-05-15T03:23:54.684Z,2.34
2023-05-15T03:26:23.274Z,2.32
2023-05-15T03:28:51.325Z,2.33
2023-05-15T03:31:19.609Z,2.29
2023-05-15T03:33:50.083Z,2.25
2023-05-15T03:36:18.265Z,2.28
2023-05-15T03:38:48.392Z,2.22
2023-05-15T03:41:16.469Z,2.19
2023-05-15T03:43:44.940Z,2.15
2023-05-15T03:46:13.192Z,2.11
2023-05-15T03:48:42.400Z,2.12
2023-05-15T03:51:10.787Z,2.09
2023-05-15T03:53:39.229Z,2.08
2023-05-15T03:56:08.844Z,2.08
2023-05-15T03:58:37.160Z,2.04
2023-05-15T04:01:05.416Z,2.03
2023-05-15T04:03:33.996Z,2.02
2023-05-15T04:06:02.028Z,2.00
2023-05-15T04:08:30.128Z,2.01
2023-05-15T04:10:58.364Z,1.99
2023-05-15T04:13:27.919Z,1.98
2023-05-15T04:15:56.084Z,1.97
2023-05-15T04:18:24.191Z,1.96
2023-05-15T04:20:52.750Z,1.90
2023-05-15T04:23:21.159Z,1.92
2023-05-15T04:25:49.471Z,1.90
2023-05-15T04:28:18.063Z,1.89
2023-05-15T04:30:47.610Z,1.89
2023-05-15T04:33:16.010Z,1.88
2023-05-15T04:35:44.750Z,1.87
2023-05-15T04:38:13.033Z,1.86
2023-05-15T04:40:43.072Z,1.87
2023-05-15T04:43:11.378Z,1.88
2023-05-15T04:45:39.653Z,1.89
2023-05-15T04:48:09.434Z,1.88
2023-05-15T04:50:38.022Z,1.92
2023-05-15T04:53:06.769Z,1.90
2023-05-15T04:55:34.975Z,1.95
2023-05-15T04:58:03.181Z,1.99
2023-05-15T05:00:31.236Z,2.01
2023-05-15T05:02:59.548Z,2.07
2023-05-15T05:05:29.080Z,2.23
2023-05-15T05:07:57.646Z,2.46
2023-05-15T05:10:25.821Z,2.72
2023-05-15T05:12:53.923Z,2.97
2023-05-15T05:15:22.049Z,3.27
2023-05-15T05:17:50.178Z,3.57
2023-05-15T05:20:18.759Z,3.91
2023-05-15T05:22:48.524Z,4.22
2023-05-15T05:25:16.769Z,4.58
2023-05-15T05:27:44.835Z,4.95
2023-05-15T05:30:13.351Z,5.32
2023-05-15T05:32:41.434Z,5.69
2023-05-15T05:35:10.207Z,6.07
2023-05-15T05:37:40.348Z,6.45
2023-05-15T05:40:12.185Z,6.87
2023-05-15T05:42:40.339Z,7.29
2023-05-15T05:45:08.947Z,7.69
2023-05-15T05:47:37.185Z,8.08
2023-05-15T05:50:05.492Z,8.57
2023-05-15T05:52:33.750Z,9.06
2023-05-15T05:55:02.121Z,9.50
2023-05-15T05:57:31.942Z,9.91
2023-05-15T06:00:00.184Z,10.37
2023-05-15T06:02:28.570Z,10.77
2023-05-15T06:04:57.048Z,11.01
2023-05-15T06:07:25.617Z,11.24
2023-05-15T06:09:53.719Z,11.75
2023-05-15T06:12:23.136Z,11.91
2023-05-15T06:14:52.843Z,12.24
2023-05-15T06:17:21.403Z,12.39
2023-05-15T06:19:49.460Z,12.68
2023-05-15T06:22:17.545Z,12.81
2023-05-15T06:24:46.053Z,13.05
2023-05-15T06:27:14.245Z,13.36
2023-05-15T06:29:42.764Z,13.60
2023-05-15T06:32:12.753Z,14.02
2023-05-15T06:34:40.857Z,14.35
2023-05-15T06:37:08.929Z,14.65
2023-05-15T06:39:37.328Z,15.16
2023-05-15T06:42:05.938Z,15.45
2023-05-15T06:44:36.509Z,15.87
2023-05-15T06:47:04.854Z,16.35
2023-05-15T06:49:34.797Z,16.39
2023-05-15T06:52:02.854Z,16.27
2023-05-15T06:54:31.176Z,16.65
2023-05-15T06:56:59.232Z,17.21
2023-05-15T06:59:27.487Z,17.35
2023-05-15T07:01:56.226Z,16.92
2023-05-15T07:04:24.472Z,16.98
2023-05-15T07:06:54.174Z,17.01
2023-05-15T07:09:22.208Z,16.90
2023-05-15T07:11:50.342Z,16.97
2023-05-15T07:14:18.419Z,16.91
2023-05-15T07:16:47.412Z,17.06
2023-05-15T07:19:18.888Z,17.28
2023-05-15T07:21:46.923Z,17.57
2023-05-15T07:24:16.712Z,18.00
2023-05-15T07:26:57.482Z,17.81
2023-05-15T07:29:26.539Z,17.24
2023-05-15T07:31:54.933Z,17.54
2023-05-15T07:34:23.707Z,17.88
2023-05-15T07:36:51.778Z,17.96
2023-05-15T07:39:21.304Z,18.21
2023-05-15T07:41:49.447Z,18.29
2023-05-15T07:44:17.522Z,18.13
2023-05-15T07:46:46.258Z,18.26
2023-05-15T07:49:14.660Z,18.95
2023-05-15T07:51:42.834Z,19.71
2023-05-15T07:54:11.029Z,19.99
2023-05-15T07:56:40.681Z,20.27
2023-05-15T07:59:09.710Z,21.00
2023-05-15T08:01:38.406Z,21.78
2023-05-15T08:04:08.475Z,22.27
2023-05-15T08:06:37.117Z,22.66
2023-05-15T08:09:05.488Z,22.95
2023-05-15T08:11:33.575Z,23.53
2023-05-15T08:14:03.715Z,23.80
2023-05-15T08:16:32.172Z,23.45
2023-05-15T08:19:03.744Z,22.14
2023-05-15T08:21:32.442Z,20.92
2023-05-15T08:24:00.434Z,21.47
2023-05-15T08:26:28.555Z,21.07
2023-05-15T08:28:56.997Z,21.81
2023-05-15T08:31:26.444Z,21.27
2023-05-15T08:33:54.546Z,21.45
2023-05-15T08:36:22.901Z,20.45
2023-05-15T08:38:51.281Z,21.28
2023-05-15T08:41:38.782Z,21.52
2023-05-15T08:44:09.752Z,21.18
2023-05-15T08:46:39.809Z,21.37
2023-05-15T08:49:12.857Z,22.30
2023-05-15T08:51:41.122Z,22.60
2023-05-15T08:54:10.251Z,22.86
2023-05-15T08:56:38.691Z,22.67
2023-05-15T08:59:07.105Z,22.57
2023-05-15T09:01:35.376Z,22.25
2023-05-15T09:04:05.705Z,22.55
2023-05-15T09:06:35.045Z,22.49
2023-05-15T09:09:03.978Z,23.37
2023-05-15T09:11:33.420Z,23.84
2023-05-15T09:14:01.713Z,24.27
2023-05-15T09:16:30.121Z,25.04
2023-05-15T09:19:00.645Z,24.87
2023-05-15T09:21:31.600Z,25.08
2023-05-15T09:24:17.124Z,24.73
2023-05-15T09:26:46.005Z,25.38
2023-05-15T09:29:18.238Z,25.43
2023-05-15T09:31:47.749Z,24.87
2023-05-15T09:34:15.985Z,24.26
2023-05-15T09:36:46.079Z,23.69
2023-05-15T09:39:14.301Z,22.24
2023-05-15T09:41:44.518Z,22.41
2023-05-15T09:44:21.618Z,22.90
2023-05-15T09:46:50.289Z,22.39
2023-05-15T09:49:18.802Z,22.49
2023-05-15T09:51:50.501Z,22.58
2023-05-15T09:54:20.073Z,22.10
2023-05-15T09:56:48.808Z,22.23
2023-05-15T09:59:17.872Z,21.53
2023-05-15T10:01:46.730Z,20.95
2023-05-15T10:04:15.221Z,20.66
2023-05-15T10:06:44.148Z,20.57
2023-05-15T10:09:14.297Z,21.08
2023-05-15T10:11:44.012Z,21.95
2023-05-15T10:14:13.264Z,22.05
2023-05-15T10:16:42.127Z,22.23
2023-05-15T10:19:10.901Z,22.01
2023-05-15T10:21:39.892Z,21.22
2023-05-15T10:24:08.674Z,20.98
2023-05-15T10:26:39.373Z,20.02
2023-05-15T10:29:08.346Z,20.55
2023-05-15T10:31:36.959Z,20.23
2023-05-15T10:34:05.433Z,19.47
2023-05-15T10:36:33.826Z,19.21
2023-05-15T10:39:02.638Z,18.95
2023-05-15T10:41:31.217Z,18.91
2023-05-15T10:44:01.542Z,18.76
2023-05-15T10:46:31.294Z,19.19
2023-05-15T10:49:00.656Z,19.50
2023-05-15T10:51:29.239Z,19.76
2023-05-15T10:53:58.230Z,19.47
2023-05-15T10:56:31.336Z,19.78
2023-05-15T10:59:06.767Z,19.74
2023-05-15T11:01:35.582Z,19.48
2023-05-15T11:04:11.223Z,19.48
2023-05-15T11:06:39.985Z,19.33
2023-05-15T11:09:36.116Z,19.22
2023-05-15T11:12:05.412Z,19.49
2023-05-15T11:14:36.500Z,19.77
2023-05-15T11:17:05.617Z,19.56
2023-05-15T11:19:36.470Z,19.76
2023-05-15T11:22:16.885Z,19.50
2023-05-15T11:24:52.514Z,19.46
2023-05-15T11:27:21.650Z,19.27
2023-05-15T11:30:11.722Z,18.99
2023-05-15T11:32:58.462Z,19.36
2023-05-15T11:35:28.808Z,19.65
2023-05-15T11:37:58.133Z,19.73
2023-05-15T11:40:27.775Z,20.42
2023-05-15T11:43:06.884Z,20.77
2023-05-15T11:45:37.584Z,20.73
2023-05-15T11:48:06.747Z,20.29
2023-05-15T11:50:35.764Z,20.38
2023-05-15T11:53:05.449Z,19.85
2023-05-15T11:55:34.379Z,19.84
2023-05-15T11:58:02.428Z,19.40
2023-05-15T12:00:33.892Z,19.48
2023-05-15T12:03:04.163Z,19.71
2023-05-15T12:05:32.334Z,20.17
2023-05-15T12:08:00.547Z,20.36
2023-05-15T12:10:28.545Z,20.51
2023-05-15T12:12:56.630Z,20.49
2023-05-15T12:15:24.699Z,20.63
2023-05-15T12:17:53.239Z,20.72
2023-05-15T12:20:22.863Z,20.24
2023-05-15T12:22:51.547Z,20.46
2023-05-15T12:25:19.569Z,20.04
2023-05-15T12:27:47.904Z,19.63
2023-05-15T12:30:16.593Z,19.80
2023-05-15T12:32:44.989Z,20.30
2023-05-15T12:35:13.276Z,20.80
2023-05-15T12:37:42.954Z,20.76
2023-05-15T12:40:11.994Z,20.65
2023-05-15T12:42:41.128Z,20.65
2023-05-15T12:45:19.213Z,20.20
2023-05-15T12:47:47.812Z,19.94
2023-05-15T12:50:17.139Z,19.72
2023-05-15T12:52:51.677Z,19.99
2023-05-15T12:55:20.229Z,20.02
2023-05-15T12:57:48.527Z,19.80
2023-05-15T13:00:17.600Z,19.47
2023-05-15T13:02:46.408Z,19.52
2023-05-15T13:05:14.923Z,19.29
2023-05-15T13:07:43.252Z,19.11
2023-05-15T13:10:13.480Z,19.14
2023-05-15T13:12:43.607Z,19.03
2023-05-15T13:15:23.719Z,19.86
2023-05-15T13:17:53.641Z,19.99
2023-05-15T13:20:21.776Z,20.38
2023-05-15T13:22:49.808Z,20.64
2023-05-15T13:25:21.129Z,20.67
2023-05-15T13:27:49.329Z,20.61
2023-05-15T13:30:18.559Z,21.04
2023-05-15T13:32:46.795Z,21.15
2023-05-15T13:35:15.310Z,20.95
2023-05-15T13:37:43.716Z,21.22
2023-05-15T13:40:12.537Z,21.07
2023-05-15T13:42:43.159Z,20.47
2023-05-15T13:45:12.002Z,20.35
2023-05-15T13:47:40.655Z,19.86
2023-05-15T13:50:09.418Z,19.99
2023-05-15T13:52:37.518Z,19.75
2023-05-15T13:55:06.104Z,19.87
2023-05-15T13:57:34.148Z,19.59
2023-05-15T14:00:09.511Z,19.88
2023-05-15T14:02:39.241Z,20.23
2023-05-15T14:05:11.667Z,20.46
2023-05-15T14:07:45.210Z,20.60
2023-05-15T14:10:17.082Z,21.08
2023-05-15T14:12:51.992Z,21.31
2023-05-15T14:15:28.787Z,21.10
2023-05-15T14:18:02.918Z,21.03
2023-05-15T14:20:34.460Z,20.87
2023-05-15T14:23:03.927Z,20.49
2023-05-15T14:25:35.743Z,20.78
2023-05-15T14:28:06.734Z,20.65
2023-05-15T14:30:41.602Z,19.90
2023-05-15T14:33:15.325Z,20.15
2023-05-15T14:35:44.843Z,19.85
2023-05-15T14:38:17.518Z,19.98
2023-05-15T14:40:50.195Z,20.18
2023-05-15T14:43:24.153Z,19.88
2023-05-15T14:45:55.818Z,20.40
2023-05-15T14:48:27.418Z,20.48
2023-05-15T14:50:56.867Z,20.29
2023-05-15T14:53:24.918Z,20.27
2023-05-15T14:55:57.132Z,20.52
2023-05-15T14:58:31.468Z,20.13
2023-05-15T15:01:07.080Z,20.61
2023-05-15T15:03:40.281Z,19.95
2023-05-15T15:06:13.333Z,19.77
2023-05-15T15:08:46.441Z,19.96
2023-05-15T15:11:15.568Z,20.14
2023-05-15T15:13:43.476Z,20.06
2023-05-15T15:16:13.236Z,20.09
2023-05-15T15:18:44.864Z,20.09
2023-05-15T15:21:14.628Z,20.24
2023-05-15T15:23:47.432Z,20.24
2023-05-15T15:26:21.488Z,19.98
2023-05-15T15:28:56.159Z,19.56
2023-05-15T15:31:29.463Z,19.21
2023-05-15T15:34:04.428Z,19.31
2023-05-15T15:36:39.041Z,19.43
2023-05-15T15:39:14.956Z,19.52
2023-05-15T15:41:47.530Z,19.71
2023-05-15T15:44:19.748Z,19.88
2023-05-15T15:46:54.973Z,20.10
2023-05-15T15:49:24.499Z,20.01
2023-05-15T15:51:52.560Z,19.91
2023-05-15T15:54:20.683Z,19.79
2023-05-15T15:56:48.812Z,19.64
2023-05-15T15:59:17.076Z,19.43
2023-05-15T16:01:45.470Z,19.15
2023-05-15T16:04:15.188Z,19.15
2023-05-15T16:06:47.442Z,19.48
2023-05-15T16:09:20.343Z,19.33
2023-05-15T16:11:48.668Z,19.48
2023-05-15T16:14:20.981Z,19.48
2023-05-15T16:16:51.008Z,19.83
2023-05-15T16:19:27.796Z,20.11
2023-05-15T16:22:00.801Z,19.85
2023-05-15T16:24:34.313Z,20.05
2023-05-15T16:27:08.167Z,19.87
2023-05-15T16:29:42.198Z,20.14
2023-05-15T16:32:13.050Z,19.65
2023-05-15T16:34:47.720Z,19.64
2023-05-15T16:37:21.219Z,19.65
2023-05-15T16:39:53.884Z,19.33
2023-05-15T16:42:28.534Z,19.64
2023-05-15T16:45:02.324Z,19.48
2023-05-15T16:47:36.177Z,18.98
2023-05-15T16:50:09.963Z,18.93
2023-05-15T16:52:45.483Z,18.83
2023-05-15T16:55:17.933Z,18.75
2023-05-15T16:57:50.204Z,18.30
2023-05-15T17:00:23.235Z,18.58
2023-05-15T17:02:53.654Z,18.48
2023-05-15T17:05:27.088Z,18.58
2023-05-15T17:07:59.129Z,18.67
2023-05-15T17:10:31.259Z,18.36
2023-05-15T17:13:04.506Z,18.50
2023-05-15T17:15:37.230Z,18.37
2023-05-15T17:18:11.560Z,18.37
2023-05-15T17:20:47.666Z,18.36
2023-05-15T17:23:22.836Z,18.53
2023-05-15T17:25:55.016Z,18.52
2023-05-15T17:28:27.264Z,18.22
2023-05-15T17:30:59.833Z,18.35
2023-05-15T17:33:32.822Z,18.45
2023-05-15T17:36:07.175Z,18.35
2023-05-15T17:38:36.337Z,18.09
2023-05-15T17:41:05.355Z,18.01
2023-05-15T17:43:33.665Z,18.02
2023-05-15T17:46:02.592Z,18.07
2023-05-15T17:48:34.977Z,18.05
2023-05-15T17:51:10.477Z,17.92
2023-05-15T17:53:44.334Z,17.72
2023-05-15T17:56:17.169Z,17.31
2023-05-15T17:58:50.522Z,17.27
2023-05-15T18:01:23.794Z,17.23
2023-05-15T18:03:54.151Z,16.94
2023-05-15T18:06:29.267Z,16.86
2023-05-15T18:09:00.386Z,16.58
2023-05-15T18:11:33.938Z,16.51
2023-05-15T18:14:06.489Z,16.16
2023-05-15T18:16:39.017Z,16.19
2023-05-15T18:19:10.474Z,15.98
2023-05-15T18:21:45.898Z,15.91
2023-05-15T18:24:19.060Z,15.88
2023-05-15T18:26:51.912Z,15.91
2023-05-15T18:29:24.342Z,15.91
2023-05-15T18:31:56.786Z,15.78
2023-05-15T18:34:27.859Z,15.68
2023-05-15T18:36:58.394Z,15.71
2023-05-15T18:39:29.818Z,15.60
2023-05-15T18:42:02.551Z,15.50
2023-05-15T18:44:36.376Z,15.45
2023-05-15T18:47:08.863Z,15.34
2023-05-15T18:49:41.379Z,15.27
2023-05-15T18:52:13.899Z,15.22
2023-05-15T18:54:42.520Z,15.11
2023-05-15T18:57:15.839Z,15.08
2023-05-15T18:59:49.107Z,14.97
2023-05-15T19:02:24.044Z,14.91
2023-05-15T19:05:00.309Z,14.82
2023-05-15T19:07:36.082Z,14.72
2023-05-15T19:10:10.647Z,14.56
2023-05-15T19:12:43.715Z,14.59
2023-05-15T19:15:19.187Z,14.52
2023-05-15T19:17:51.529Z,14.41
2023-05-15T19:20:24.043Z,14.42
2023-05-15T19:23:01.371Z,14.36
2023-05-15T19:25:34.947Z,14.30
2023-05-15T19:28:08.430Z,14.26
2023-05-15T19:30:41.638Z,14.26
2023-05-15T19:33:13.768Z,14.07
2023-05-15T19:35:43.640Z,14.05
2023-05-15T19:38:18.319Z,13.98
2023-05-15T19:40:51.369Z,13.87
2023-05-15T19:43:23.345Z,13.77
2023-05-15T19:45:56.265Z,13.69
2023-05-15T19:48:28.292Z,13.60
2023-05-15T19:50:57.775Z,13.48
2023-05-15T19:53:32.717Z,13.38
2023-05-15T19:56:06.876Z,13.26
2023-05-15T19:58:39.384Z,13.14
2023-05-15T20:01:12.300Z,13.02
2023-05-15T20:03:46.532Z,12.85
2023-05-15T20:06:19.967Z,12.61
2023-05-15T20:08:54.198Z,12.24
2023-05-15T20:11:27.484Z,12.04
2023-05-15T20:14:00.388Z,11.61
2023-05-15T20:16:33.277Z,11.51
2023-05-15T20:19:07.510Z,11.35
2023-05-15T20:21:42.093Z,11.19
2023-05-15T20:24:17.502Z,10.95
2023-05-15T20:26:51.235Z,10.79
2023-05-15T20:29:24.714Z,10.65
2023-05-15T20:31:58.935Z,10.51
2023-05-15T20:34:34.486Z,10.35
2023-05-15T20:37:08.255Z,10.23
2023-05-15T20:39:45.142Z,10.06
2023-05-15T20:42:17.438Z,9.94
2023-05-15T20:44:50.493Z,9.79
2023-05-15T20:47:24.896Z,9.67
2023-05-15T20:49:58.386Z,9.50
2023-05-15T20:52:31.459Z,9.38
2023-05-15T20:55:07.283Z,9.23
2023-05-15T20:57:40.990Z,9.09
2023-05-15T21:00:16.526Z,8.93
2023-05-15T21:02:49.423Z,8.78
2023-05-15T21:05:23.068Z,8.64
2023-05-15T21:07:54.802Z,8.46
2023-05-15T21:10:31.384Z,8.32
2023-05-15T21:13:04.581Z,8.24
2023-05-15T21:15:37.470Z,8.10
2023-05-15T21:18:10.180Z,8.01
2023-05-15T21:20:43.242Z,7.96
2023-05-15T21:23:16.225Z,7.91
2023-05-15T21:25:51.157Z,7.87
2023-05-15T21:28:23.763Z,7.82
2023-05-15T21:30:56.332Z,7.77
2023-05-15T21:33:30.146Z,7.73
2023-05-15T21:36:03.204Z,7.68
2023-05-15T21:38:32.902Z,7.64
2023-05-15T21:41:03.963Z,7.60
2023-05-15T21:43:36.787Z,7.60
2023-05-15T21:46:06.171Z,7.58
2023-05-15T21:48:38.394Z,7.55
2023-05-15T21:51:11.397Z,7.50
2023-05-15T21:53:40.766Z,7.47
2023-05-15T21:56:17.335Z,7.43
2023-05-15T21:58:46.634Z,7.41
2023-05-15T22:01:19.550Z,7.39
2023-05-15T22:03:52.111Z,7.37
2023-05-15T22:06:24.591Z,7.36
2023-05-15T22:08:57.193Z,7.32
2023-05-15T22:11:28.797Z,7.30
2023-05-15T22:14:01.190Z,7.29
2023-05-15T22:16:34.746Z,7.27
2023-05-15T22:19:13.530Z,7.24
2023-05-15T22:21:52.021Z,7.15
2023-05-15T22:24:26.032Z,7.10
2023-05-15T22:27:01.180Z,7.02
2023-05-15T22:29:32.934Z,6.95
2023-05-15T22:32:06.537Z,6.85
2023-05-15T22:34:38.220Z,6.77
2023-05-15T22:37:12.258Z,6.67
2023-05-15T22:39:41.054Z,6.61
2023-05-15T22:42:15.097Z,6.53
2023-05-15T22:44:46.795Z,6.47
2023-05-15T22:47:18.992Z,6.42
2023-05-15T22:49:50.737Z,6.39
2023-05-15T22:52:19.037Z,6.36
2023-05-15T22:54:47.246Z,6.29
2023-05-15T22:57:16.922Z,6.23
2023-05-15T22:59:45.726Z,6.21
2023-05-15T23:02:13.660Z,6.16
2023-05-15T23:04:41.691Z,6.12
2023-05-15T23:07:10.072Z,6.11
2023-05-15T23:09:38.376Z,6.07
2023-05-15T23:12:06.955Z,6.05
2023-05-15T23:14:37.002Z,6.04
2023-05-15T23:17:05.297Z,6.00
2023-05-15T23:19:33.345Z,5.95
2023-05-15T23:22:02.317Z,5.87
2023-05-15T23:24:30.548Z,5.81
2023-05-15T23:26:58.846Z,5.77
2023-05-15T23:29:27.427Z,5.75
2023-05-15T23:31:58.190Z,5.70
2023-05-15T23:34:26.256Z,5.63
2023-05-15T23:36:54.242Z,5.57
2023-05-15T23:39:22.238Z,5.51
2023-05-15T23:41:50.726Z,5.44
2023-05-15T23:44:18.948Z,5.41
2023-05-15T23:46:47.286Z,5.34
2023-05-15T23:49:17.033Z,5.29
2023-05-15T23:51:45.092Z,5.25
2023-05-15T23:54:13.304Z,5.19
2023-05-15T23:56:41.329Z,5.11
2023-05-15T23:59:09.623Z,5.07
